01:51 MTB Giessenbach Arnspitzrunde
Ort Giessenbach Datum 15.06.2017 11:25:21
Kategorie MTB
Distanz 30,24 Kilometer Steigung 286,0 Meter Gefälle -287,0 Meter
Gesamt Zeit 01:57:00 Aktiv 01:50:50 Pause 00:06:10
Durchs. Tempo 16,4 km/h Tempo max. 49,7 km/h Tempo min. 7,5 km/h
Kalorien 0 Durchs. HF 77 BPM HF max. 117 BPM
Wetter 24 °C PartClouds Min/Max: 23,0 °C/26,0 °C; Druck: 1017,7 mbar; Rel. Feuchte: 48,4%; Taupunkt: 13,6 °C; Windgeschwindigkeit: 7,0 km/h; Niederschlag: 0,0mm
Ausrüstung Bontrager - Race X Lite MTB
BMC - Teamelite 02 XT 2016 XL
Notiz Giessenbach Arnspitzrunde ... super Wetter - ganz lockere Runde mit Diana und den Eltern ... garmin connect
Splits
Distanz (km) Gesamt Zeit Split Zeit Split Tempo Split Tempo Höhenprofil (m)
1,00 00:03:49 00:03:49 00:03:50 15,7 0,00
2,00 00:08:37 00:04:47 00:04:48 12,5 18,29
3,00 00:14:05 00:05:27 00:05:28 11,0 41,36
4,00 00:19:48 00:05:42 00:05:42 10,5 29,94
5,00 00:23:53 00:04:05 00:04:05 14,7 33,18
6,00 00:28:20 00:04:27 00:04:28 13,5 32,46
7,00 00:32:17 00:03:56 00:03:57 15,2 -7,67
8,00 00:33:45 00:01:27 00:01:28 41,0 -45,55
9,00 00:36:58 00:03:12 00:03:13 18,7 -2,14
10,00 00:39:48 00:02:50 00:02:50 21,1 -11,21
11,00 00:43:16 00:03:28 00:03:28 17,3 -9,50
12,00 00:46:24 00:03:08 00:03:08 19,1 -10,02
13,00 00:50:03 00:03:38 00:03:38 16,5 -8,68
14,00 00:53:06 00:03:03 00:03:03 19,6 -10,47
15,00 00:56:11 00:03:04 00:03:05 19,5 -5,67
16,00 00:59:38 00:03:27 00:03:27 17,4 -6,69
17,00 01:02:28 00:02:49 00:02:50 21,2 -8,60
18,00 01:05:36 00:03:07 00:03:08 19,2 -9,04
19,00 01:08:25 00:02:49 00:02:49 21,2 -3,63
20,00 01:11:52 00:03:26 00:03:27 17,4 12,49
21,00 01:13:25 00:01:33 00:01:33 38,6 -69,13
22,00 01:15:54 00:02:28 00:02:29 24,2 -48,31
23,00 01:19:45 00:03:51 00:03:51 15,6 6,87
24,00 01:23:39 00:03:54 00:03:54 15,4 7,87
25,00 01:27:07 00:03:27 00:03:28 17,3 3,00
26,00 01:30:40 00:03:33 00:03:33 16,9 8,03
27,00 01:35:14 00:04:33 00:04:33 13,2 7,76
28,00 01:39:22 00:04:08 00:04:08 14,5 14,49
29,00 01:44:13 00:04:51 00:04:51 12,4 19,20
30,00 01:48:53 00:04:39 00:04:40 12,9 15,55
30,42 01:50:50 00:01:56 00:04:35 13,1 5,82